Time;durP1;ratioP1;P1;durP2;ratioP2;P2;SDS_P1;SDS_P2;PMS_P1;PMS_P2;Temp;Humidity;BMP_temperature;BMP_pressure;BME280_temperature;BME280_humidity;BME280_pressure;Samples;Min_cycle;Max_cycle;Signal;HPM_P1;HPM_P2
2021/08/21 00:00:41;;;;;;;3.22;2.40;;;;;;;25.72;51.90;100789.58;1730314;80;21319;-44
2021/08/21 00:03:08;;;;;;;3.77;2.25;;;;;;;25.73;51.90;100788.41;1721540;81;21057;-44
2021/08/21 00:05:35;;;;;;;2.72;2.10;;;;;;;25.74;51.90;100801.20;1736091;80;23216;-44
2021/08/21 00:08:02;;;;;;;2.55;2.00;;;;;;;25.72;51.90;100797.36;1728051;80;21029;-44
2021/08/21 00:10:28;;;;;;;3.65;2.35;;;;;;;25.73;51.93;100793.99;1723691;80;21006;-45
2021/08/21 00:12:55;;;;;;;4.40;2.00;;;;;;;25.71;51.95;100792.97;1726550;81;21495;-45
2021/08/21 00:15:22;;;;;;;4.80;2.10;;;;;;;25.72;51.92;100791.78;1732278;80;21090;-46
2021/08/21 00:17:48;;;;;;;2.87;2.10;;;;;;;25.73;51.94;100796.78;1737484;80;21528;-44
2021/08/21 00:20:14;;;;;;;3.05;2.00;;;;;;;25.73;51.93;100800.95;1729782;80;21004;-44
2021/08/21 00:22:40;;;;;;;3.35;2.30;;;;;;;25.73;51.94;100792.59;1728745;81;21070;-45
2021/08/21 00:25:08;;;;;;;3.40;2.10;;;;;;;25.73;51.94;100802.34;1733144;80;21102;-45
2021/08/21 00:27:34;;;;;;;4.08;2.27;;;;;;;25.73;51.95;100798.17;1730471;81;21478;-44
2021/08/21 00:30:00;;;;;;;3.05;2.20;;;;;;;25.73;51.94;100796.78;1726658;80;21253;-46
2021/08/21 00:32:26;;;;;;;2.27;1.95;;;;;;;25.73;51.95;100796.78;1705127;82;21087;-43
2021/08/21 00:34:52;;;;;;;2.35;1.90;;;;;;;25.72;51.94;100793.17;1707854;82;20939;-46
2021/08/21 00:37:18;;;;;;;3.52;2.20;;;;;;;25.72;51.95;100790.39;1731004;80;20972;-44
2021/08/21 00:39:44;;;;;;;3.00;1.92;;;;;;;25.72;51.96;100791.78;1730430;80;21431;-44
2021/08/21 00:42:11;;;;;;;3.15;2.10;;;;;;;25.71;51.97;100788.79;1730377;80;21386;-44
2021/08/21 00:44:39;;;;;;;3.35;2.17;;;;;;;25.72;51.99;100790.97;1727053;80;21534;-42
2021/08/21 00:47:13;;;;;;;3.62;2.10;;;;;;;25.72;51.99;100793.17;1733256;80;21100;-42
2021/08/21 00:49:41;;;;;;;3.00;2.20;;;;;;;25.73;51.98;100792.59;1725109;81;21031;-42
2021/08/21 00:52:11;;;;;;;2.98;2.30;;;;;;;25.72;52.00;100796.54;1725300;80;21045;-42
2021/08/21 00:54:39;;;;;;;2.92;2.00;;;;;;;25.71;52.01;100790.19;1729460;82;21147;-41
2021/08/21 00:57:06;;;;;;;3.47;2.10;;;;;;;25.72;52.00;100790.97;1727247;80;21073;-42
2021/08/21 00:59:37;;;;;;;3.72;2.10;;;;;;;25.71;52.00;100790.77;1728637;81;21114;-43
2021/08/21 01:02:05;;;;;;;2.00;1.77;;;;;;;25.71;52.01;100783.80;1705119;83;21004;-43
2021/08/21 01:04:32;;;;;;;3.67;2.25;;;;;;;25.71;52.01;100790.19;1724597;81;21098;-42
2021/08/21 01:07:01;;;;;;;3.75;2.05;;;;;;;25.71;52.02;100786.58;1730889;80;22430;-43
2021/08/21 01:09:27;;;;;;;3.47;1.92;;;;;;;25.71;52.03;100786.58;1730667;81;21190;-41
2021/08/21 01:11:53;;;;;;;2.83;2.10;;;;;;;25.71;52.03;100782.40;1728408;80;21059;-42
2021/08/21 01:14:19;;;;;;;2.50;1.92;;;;;;;25.71;52.05;100779.61;1725453;80;20989;-43
2021/08/21 01:16:45;;;;;;;2.67;2.05;;;;;;;25.70;52.04;100781.59;1742837;80;21022;-42
2021/08/21 01:19:11;;;;;;;2.35;2.10;;;;;;;25.70;52.05;100769.63;1738792;80;21363;-41
2021/08/21 01:21:38;;;;;;;2.30;1.80;;;;;;;25.71;52.04;100774.05;1741103;80;21059;-42
2021/08/21 01:24:05;;;;;;;2.17;1.80;;;;;;;25.70;52.05;100769.63;1741151;81;20930;-43
2021/08/21 01:26:32;;;;;;;2.40;1.90;;;;;;;25.71;52.03;100771.25;1743413;81;21064;-44
2021/08/21 01:28:58;;;;;;;2.80;2.10;;;;;;;25.70;52.07;100776.59;1746459;81;21067;-43
2021/08/21 01:31:24;;;;;;;2.85;2.10;;;;;;;25.70;52.08;100775.20;1741342;80;22404;-42
2021/08/21 01:33:50;;;;;;;4.35;2.05;;;;;;;25.70;52.08;100772.41;1742764;80;20912;-42
2021/08/21 01:36:16;;;;;;;2.52;1.80;;;;;;;25.69;52.06;100770.20;1738923;80;21458;-42
2021/08/21 01:38:56;;;;;;;2.72;2.00;;;;;;;25.70;52.08;100772.41;1744697;80;21940;-42
2021/08/21 01:41:23;;;;;;;3.02;2.15;;;;;;;25.70;52.07;100766.84;1749993;80;21075;-42
2021/08/21 01:43:49;;;;;;;2.83;2.10;;;;;;;25.69;52.09;100761.84;1744822;80;22775;-41
2021/08/21 01:46:15;;;;;;;3.40;2.20;;;;;;;25.69;52.08;100770.20;1739074;80;21028;-42
2021/08/21 01:48:41;;;;;;;2.72;1.82;;;;;;;25.68;52.08;100765.78;1738584;80;20902;-42
2021/08/21 01:51:07;;;;;;;3.08;2.25;;;;;;;25.69;52.06;100767.42;1739721;80;20871;-43
2021/08/21 01:53:33;;;;;;;2.40;1.67;;;;;;;25.68;52.09;100764.39;1742052;80;21630;-41
2021/08/21 01:55:59;;;;;;;3.33;2.30;;;;;;;25.69;52.06;100766.60;1742164;80;21629;-42
2021/08/21 01:58:26;;;;;;;2.98;1.98;;;;;;;25.69;52.06;100765.21;1742228;80;20995;-42
2021/08/21 02:00:52;;;;;;;3.00;2.20;;;;;;;25.69;52.10;100759.64;1735975;80;21043;-44
2021/08/21 02:03:18;;;;;;;2.92;1.95;;;;;;;25.69;52.05;100766.60;1738944;80;20896;-41
2021/08/21 02:05:44;;;;;;;2.92;1.90;;;;;;;25.68;52.08;100764.97;1748353;80;21004;-41
2021/08/21 02:08:10;;;;;;;3.12;1.98;;;;;;;25.68;52.06;100769.16;1734512;80;21072;-42
2021/08/21 02:10:37;;;;;;;2.90;2.33;;;;;;;25.68;52.06;100767.76;1739443;80;20947;-41
2021/08/21 02:13:03;;;;;;;2.52;1.98;;;;;;;25.68;52.05;100768.58;1744313;80;21145;-42
2021/08/21 02:15:29;;;;;;;2.90;2.10;;;;;;;25.68;52.06;100768.58;1738591;81;21102;-45
2021/08/21 02:17:55;;;;;;;3.27;1.90;;;;;;;25.67;52.05;100773.94;1733999;80;21067;-41
2021/08/21 02:20:22;;;;;;;2.70;2.27;;;;;;;25.68;52.05;100768.58;1743631;80;21518;-42
2021/08/21 02:22:48;;;;;;;2.62;2.05;;;;;;;25.67;52.03;100768.38;1746466;80;21534;-42
2021/08/21 02:25:14;;;;;;;2.58;1.90;;;;;;;25.68;52.05;100767.76;1735964;81;21077;-41
2021/08/21 02:27:44;;;;;;;3.90;2.27;;;;;;;25.67;52.05;100767.55;1738552;81;21160;-42
2021/08/21 02:30:10;;;;;;;2.27;1.90;;;;;;;25.67;52.04;100769.77;1746283;80;21076;-42
2021/08/21 02:32:37;;;;;;;2.67;2.20;;;;;;;25.67;52.03;100766.16;1739956;80;21054;-46
2021/08/21 02:35:04;;;;;;;2.58;1.90;;;;;;;25.67;52.02;100765.58;1739531;80;21083;-41
2021/08/21 02:37:31;;;;;;;2.40;1.90;;;;;;;25.66;52.03;100768.71;1737103;81;21073;-41
2021/08/21 02:39:57;;;;;;;3.27;1.95;;;;;;;25.67;52.04;100766.16;1718923;81;21156;-42
2021/08/21 02:42:23;;;;;;;3.37;1.77;;;;;;;25.66;52.01;100760.35;1710386;82;21589;-42
2021/08/21 02:44:49;;;;;;;2.12;1.92;;;;;;;25.66;52.00;100765.92;1713046;82;22100;-42
2021/08/21 02:47:15;;;;;;;3.58;1.80;;;;;;;25.66;52.00;100768.71;1740843;80;21081;-43
2021/08/21 02:49:41;;;;;;;2.60;2.10;;;;;;;25.65;51.99;100766.50;1741878;80;20891;-43
2021/08/21 02:52:07;;;;;;;2.90;2.40;;;;;;;25.66;51.98;100768.71;1738223;80;20886;-43
2021/08/21 02:54:33;;;;;;;4.40;2.20;;;;;;;25.65;51.98;100766.50;1736328;81;21501;-43
2021/08/21 02:56:59;;;;;;;3.90;2.10;;;;;;;25.65;51.98;100767.89;1748745;80;21240;-42
2021/08/21 02:59:25;;;;;;;3.42;1.95;;;;;;;25.65;51.97;100769.87;1739680;80;20994;-41
2021/08/21 03:01:51;;;;;;;3.95;2.33;;;;;;;25.64;51.96;100769.05;1741170;81;21065;-43
2021/08/21 03:04:18;;;;;;;5.03;2.25;;;;;;;25.65;51.95;100768.48;1734708;80;21075;-44
2021/08/21 03:06:44;;;;;;;3.37;2.30;;;;;;;25.65;51.95;100775.44;1740673;80;21619;-41
2021/08/21 03:09:10;;;;;;;3.50;2.20;;;;;;;25.64;51.95;100777.41;1736990;80;23126;-42
2021/08/21 03:11:36;;;;;;;2.98;2.30;;;;;;;25.65;51.95;100782.41;1737228;81;20951;-42
2021/08/21 03:14:03;;;;;;;4.28;2.52;;;;;;;25.63;51.92;100784.14;1745880;80;21087;-42
2021/08/21 03:16:29;;;;;;;2.67;1.82;;;;;;;25.64;51.94;100782.17;1732519;81;21098;-43
2021/08/21 03:18:55;;;;;;;3.72;1.87;;;;;;;25.64;51.93;100787.74;1737600;80;21039;-45
2021/08/21 03:21:22;;;;;;;3.60;2.75;;;;;;;25.63;51.94;100786.92;1738326;80;21089;-43
2021/08/21 03:23:48;;;;;;;3.15;2.30;;;;;;;25.63;51.92;100793.89;1739330;81;21129;-43
2021/08/21 03:26:15;;;;;;;3.17;2.40;;;;;;;25.63;51.89;100795.89;1742718;80;21055;-42
2021/08/21 03:28:41;;;;;;;4.22;2.08;;;;;;;25.63;51.90;100798.07;1737361;81;21042;-42
2021/08/21 03:31:07;;;;;;;6.10;2.50;;;;;;;25.63;51.88;100802.25;1733354;80;21083;-42
2021/08/21 03:33:33;;;;;;;4.42;2.10;;;;;;;25.63;51.90;100798.68;1735368;81;21312;-43
2021/08/21 03:35:59;;;;;;;2.95;2.10;;;;;;;25.63;51.89;100798.07;1738754;81;21062;-43
2021/08/21 03:38:25;;;;;;;3.02;2.27;;;;;;;25.63;51.89;100798.07;1739459;82;21011;-43
2021/08/21 03:40:51;;;;;;;2.55;2.00;;;;;;;25.63;51.88;100805.04;1738740;81;21028;-42
2021/08/21 03:43:17;;;;;;;4.17;1.95;;;;;;;25.62;51.87;100804.83;1739415;80;21009;-43
2021/08/21 03:45:44;;;;;;;3.27;2.33;;;;;;;25.62;51.87;100801.23;1731880;81;21281;-42
2021/08/21 03:48:11;;;;;;;2.55;1.98;;;;;;;25.62;51.86;100807.62;1740651;80;21667;-42
2021/08/21 03:50:37;;;;;;;2.80;2.25;;;;;;;25.63;51.86;100814.79;1738001;80;21064;-42
2021/08/21 03:53:03;;;;;;;2.95;2.20;;;;;;;25.62;51.88;100809.59;1737806;80;21458;-42
2021/08/21 03:55:30;;;;;;;2.20;1.87;;;;;;;25.62;51.87;100807.62;1734238;80;21035;-42
2021/08/21 03:57:57;;;;;;;3.27;2.30;;;;;;;25.62;51.86;100817.95;1733519;82;21161;-42
2021/08/21 04:00:23;;;;;;;2.77;1.87;;;;;;;25.62;51.87;100815.98;1741289;80;21091;-42
2021/08/21 04:02:49;;;;;;;3.10;1.82;;;;;;;25.62;51.86;100817.95;1736608;80;21600;-42
2021/08/21 04:05:16;;;;;;;3.27;2.30;;;;;;;25.62;51.84;100813.77;1727713;80;21942;-42
2021/08/21 04:07:42;;;;;;;2.95;2.00;;;;;;;25.61;51.84;100818.52;1742364;80;21600;-42
2021/08/21 04:10:09;;;;;;;2.62;2.00;;;;;;;25.63;51.83;100827.33;1737536;82;21336;-42
2021/08/21 04:12:36;;;;;;;2.58;2.17;;;;;;;25.62;51.83;100824.91;1736848;80;21051;-42
2021/08/21 04:15:03;;;;;;;3.35;1.95;;;;;;;25.61;51.85;100824.67;1740907;82;21078;-43
2021/08/21 04:17:29;;;;;;;3.05;2.08;;;;;;;25.61;51.83;100825.48;1727416;81;21099;-43
2021/08/21 04:19:55;;;;;;;4.10;2.17;;;;;;;25.62;51.83;100833.27;1728455;81;21807;-42
2021/08/21 04:22:22;;;;;;;3.67;1.85;;;;;;;25.61;51.82;100828.85;1729048;81;23283;-42
2021/08/21 04:24:48;;;;;;;3.08;2.22;;;;;;;25.62;51.82;100829.09;1726441;82;21033;-43
2021/08/21 04:27:14;;;;;;;4.33;2.65;;;;;;;25.61;51.81;100828.27;1727406;80;20995;-44
2021/08/21 04:29:40;;;;;;;3.58;2.22;;;;;;;25.62;51.81;100828.52;1739636;80;20865;-42
2021/08/21 04:32:07;;;;;;;3.47;2.50;;;;;;;25.61;51.82;100835.81;1728224;80;21513;-42
2021/08/21 04:34:35;;;;;;;3.50;2.42;;;;;;;25.61;51.80;100832.45;1733253;81;21041;-44
2021/08/21 04:37:04;;;;;;;3.77;2.45;;;;;;;25.61;51.79;100833.03;1736904;81;21003;-43
2021/08/21 04:39:31;;;;;;;3.27;2.30;;;;;;;25.61;51.82;100835.81;1732207;80;21130;-42
2021/08/21 04:41:57;;;;;;;3.17;2.05;;;;;;;25.62;51.79;100837.45;1732429;81;21128;-44
2021/08/21 04:44:23;;;;;;;3.00;2.30;;;;;;;25.60;51.78;100843.36;1727069;80;21085;-42
2021/08/21 04:46:49;;;;;;;4.03;2.15;;;;;;;25.61;51.79;100842.78;1733357;80;23268;-44
2021/08/21 04:49:15;;;;;;;1.82;1.65;;;;;;;25.60;51.78;100838.37;1737903;80;21044;-42
2021/08/21 04:51:42;;;;;;;2.95;2.25;;;;;;;25.61;51.78;100845.57;1723826;80;20975;-43
2021/08/21 04:54:08;;;;;;;2.72;1.95;;;;;;;25.59;51.77;100841.73;1734476;80;21102;-41
2021/08/21 04:56:34;;;;;;;3.22;2.30;;;;;;;25.61;51.80;100844.99;1728994;80;21863;-42
2021/08/21 04:59:00;;;;;;;4.10;2.27;;;;;;;25.62;51.77;100850.80;1729130;81;21294;-42
2021/08/21 05:01:26;;;;;;;3.65;2.30;;;;;;;25.61;51.76;100846.97;1731726;81;21090;-42
2021/08/21 05:03:52;;;;;;;3.67;2.22;;;;;;;25.61;51.76;100850.56;1728319;81;20997;-42
2021/08/21 05:06:18;;;;;;;3.22;2.27;;;;;;;25.61;51.77;100849.17;1729518;80;21019;-42
2021/08/21 05:08:44;;;;;;;2.47;2.00;;;;;;;25.61;51.76;100852.53;1736330;80;21624;-41
2021/08/21 05:11:11;;;;;;;3.00;2.17;;;;;;;25.60;51.77;100848.94;1731517;80;21289;-42
2021/08/21 05:13:37;;;;;;;2.83;2.12;;;;;;;25.61;51.76;100863.68;1735726;80;21055;-42
2021/08/21 05:16:04;;;;;;;3.00;1.80;;;;;;;25.61;51.76;100858.11;1735749;80;21430;-41
2021/08/21 05:18:36;;;;;;;2.65;1.82;;;;;;;25.60;51.76;100862.87;1731613;80;21091;-43
2021/08/21 05:21:06;;;;;;;3.08;1.92;;;;;;;25.61;51.74;100860.89;1693779;82;21014;-42
2021/08/21 05:23:35;;;;;;;3.70;1.92;;;;;;;25.60;51.74;100860.08;1697315;83;21930;-43
2021/08/21 05:26:01;;;;;;;2.52;2.15;;;;;;;25.61;51.72;100865.08;1690630;84;20994;-43
2021/08/21 05:28:27;;;;;;;3.25;2.10;;;;;;;25.60;51.72;100867.05;1691799;82;21065;-43
2021/08/21 05:30:54;;;;;;;2.58;1.90;;;;;;;25.61;51.72;100869.25;1698275;82;21073;-42
2021/08/21 05:33:20;;;;;;;3.12;2.47;;;;;;;25.60;51.71;100867.05;1698376;82;21527;-41
2021/08/21 05:35:46;;;;;;;2.80;2.02;;;;;;;25.60;51.71;100867.63;1694999;82;21326;-44
2021/08/21 05:38:12;;;;;;;3.80;2.40;;;;;;;25.60;51.71;100867.63;1698382;82;21094;-42
2021/08/21 05:40:39;;;;;;;2.55;2.00;;;;;;;25.59;51.70;100870.98;1694902;82;20989;-41
2021/08/21 05:43:06;;;;;;;3.65;2.30;;;;;;;25.60;51.69;100878.77;1728170;80;21091;-41
2021/08/21 05:45:32;;;;;;;4.28;2.27;;;;;;;25.60;51.69;100871.22;1736319;80;21085;-43
2021/08/21 05:47:58;;;;;;;2.47;1.95;;;;;;;25.59;51.69;100869.59;1717479;80;21262;-41
2021/08/21 05:50:24;;;;;;;3.20;1.80;;;;;;;25.60;51.68;100870.41;1727593;81;23241;-42
2021/08/21 05:52:51;;;;;;;2.08;1.77;;;;;;;25.60;51.65;100871.80;1725213;81;21043;-42
2021/08/21 05:55:18;;;;;;;2.30;1.77;;;;;;;25.60;51.67;100870.41;1731904;81;21120;-44
2021/08/21 05:57:44;;;;;;;2.80;2.00;;;;;;;25.60;51.64;100875.41;1731893;80;21035;-43
2021/08/21 06:00:12;;;;;;;13.78;4.25;;;;;;;25.61;51.64;100880.40;1733256;80;22087;-42
2021/08/21 06:02:39;;;;;;;78.07;17.77;;;;;;;25.60;51.65;100872.62;1732035;81;21089;-43
2021/08/21 06:05:07;;;;;;;48.80;12.28;;;;;;;25.61;51.67;100879.82;1727425;81;21069;-44
2021/08/21 06:07:34;;;;;;;89.45;19.55;;;;;;;25.62;51.69;100872.28;1730956;81;21026;-44
2021/08/21 06:10:00;;;;;;;60.40;11.40;;;;;;;25.63;51.70;100872.52;1722466;80;21091;-44
2021/08/21 06:12:26;;;;;;;115.60;24.65;;;;;;;25.64;51.69;100872.14;1726688;80;21145;-43
2021/08/21 06:14:52;;;;;;;111.88;24.02;;;;;;;25.64;51.72;100873.54;1735019;80;21441;-43
2021/08/21 06:17:18;;;;;;;89.72;17.25;;;;;;;25.65;51.72;100875.17;1730453;80;21038;-42
2021/08/21 06:19:44;;;;;;;217.97;42.88;;;;;;;25.66;51.72;100880.16;1707844;83;21001;-42
2021/08/21 06:22:10;;;;;;;402.00;79.90;;;;;;;25.67;51.74;100874.83;1704392;83;21719;-43
2021/08/21 06:24:37;;;;;;;116.82;23.73;;;;;;;25.67;51.73;100879.02;1706095;82;21311;-44
2021/08/21 06:27:04;;;;;;;77.78;15.48;;;;;;;25.68;51.75;100881.42;1746457;80;21563;-42
2021/08/21 06:29:34;;;;;;;31.37;7.90;;;;;;;25.68;51.75;100870.86;1737424;81;21070;-41
2021/08/21 06:31:58;;;;;;;14.23;4.20;;;;;;;25.69;51.75;100872.48;1735658;81;21050;-43
2021/08/21 06:34:24;;;;;;;7.12;2.62;;;;;;;25.68;51.73;100875.86;1734418;81;21024;-41
2021/08/21 06:36:50;;;;;;;3.60;2.47;;;;;;;25.68;51.72;100875.86;1735926;81;22151;-42
2021/08/21 06:39:16;;;;;;;2.80;2.12;;;;;;;25.70;51.71;100878.30;1735616;81;21045;-42
2021/08/21 06:41:42;;;;;;;3.35;2.35;;;;;;;25.70;51.71;100874.13;1735921;80;21559;-42
2021/08/21 06:44:08;;;;;;;6.17;2.72;;;;;;;25.68;51.67;100871.67;1750294;80;20871;-42
2021/08/21 06:46:34;;;;;;;7.00;2.52;;;;;;;25.70;51.64;100875.52;1738590;81;22283;-41
2021/08/21 06:49:00;;;;;;;3.92;2.17;;;;;;;25.70;51.62;100872.73;1708197;82;21795;-42
2021/08/21 06:51:26;;;;;;;3.45;2.52;;;;;;;25.70;51.62;100876.33;1737732;81;21045;-41
2021/08/21 06:53:53;;;;;;;3.05;2.00;;;;;;;25.71;51.61;100875.75;1741956;81;21493;-42
2021/08/21 06:56:19;;;;;;;3.10;2.40;;;;;;;25.70;51.57;100880.52;1736077;81;21015;-43
2021/08/21 06:58:46;;;;;;;4.92;2.37;;;;;;;25.70;51.56;100879.12;1740161;80;21113;-41
2021/08/21 07:01:13;;;;;;;3.45;2.30;;;;;;;25.71;51.52;100882.72;1727409;82;21068;-42
2021/08/21 07:03:39;;;;;;;3.17;2.33;;;;;;;25.71;51.52;100877.14;1743275;80;21204;-42
2021/08/21 07:06:06;;;;;;;2.65;2.20;;;;;;;25.72;51.49;100880.14;1735659;80;21080;-41
2021/08/21 07:08:32;;;;;;;3.08;2.40;;;;;;;25.70;51.48;100874.94;1734857;80;21643;-43
2021/08/21 07:10:59;;;;;;;3.08;2.27;;;;;;;25.71;51.45;100877.97;1740015;81;21123;-42
2021/08/21 07:13:25;;;;;;;3.37;2.52;;;;;;;25.72;51.41;100875.38;1743547;81;21249;-41
2021/08/21 07:15:52;;;;;;;3.67;2.58;;;;;;;25.72;51.40;100872.59;1743358;80;21440;-42
2021/08/21 07:18:18;;;;;;;2.92;2.10;;;;;;;25.72;51.36;100874.56;1703725;82;21166;-43
2021/08/21 07:20:44;;;;;;;3.33;2.40;;;;;;;25.72;51.34;100870.39;1725475;80;21029;-42
2021/08/21 07:23:10;;;;;;;3.02;2.22;;;;;;;25.73;51.31;100871.44;1729904;80;21108;-42
2021/08/21 07:25:37;;;;;;;2.95;2.17;;;;;;;25.73;51.29;100872.84;1735194;80;20912;-42
2021/08/21 07:28:04;;;;;;;3.05;2.00;;;;;;;25.74;51.24;100873.65;1728521;80;21136;-42
2021/08/21 07:30:30;;;;;;;3.08;2.25;;;;;;;25.73;51.23;100871.44;1728800;80;21083;-41
2021/08/21 07:32:56;;;;;;;3.60;2.40;;;;;;;25.74;51.20;100882.02;1735858;80;20991;-41
2021/08/21 07:35:22;;;;;;;2.98;2.50;;;;;;;25.74;51.19;100878.64;1730633;81;21078;-43
2021/08/21 07:37:48;;;;;;;3.90;3.05;;;;;;;25.74;51.17;100877.83;1726300;81;21231;-42
2021/08/21 07:40:15;;;;;;;10.95;4.53;;;;;;;25.75;51.17;100877.49;1730722;80;21534;-42
2021/08/21 07:42:41;;;;;;;11.55;5.03;;;;;;;25.75;51.21;100883.64;1704218;82;21149;-43
2021/08/21 07:45:08;;;;;;;16.90;6.50;;;;;;;25.76;51.25;100885.24;1729360;82;20928;-42
2021/08/21 07:47:34;;;;;;;18.73;8.10;;;;;;;25.76;51.34;100880.48;1731111;80;21042;-44
2021/08/21 07:50:00;;;;;;;14.33;7.25;;;;;;;25.77;51.44;100890.48;1731971;80;21450;-41
2021/08/21 07:52:27;;;;;;;12.75;6.28;;;;;;;25.79;51.56;100881.77;1730394;80;21519;-41
2021/08/21 07:54:53;;;;;;;15.35;7.20;;;;;;;25.79;51.67;100884.56;1737270;80;21098;-41
2021/08/21 07:57:19;;;;;;;21.70;9.65;;;;;;;25.79;51.81;100882.59;1730408;80;21083;-41
2021/08/21 07:59:45;;;;;;;25.65;11.18;;;;;;;25.79;51.94;100888.16;1733471;80;21291;-43
2021/08/21 08:02:12;;;;;;;17.55;8.18;;;;;;;25.80;52.03;100880.63;1726164;81;21864;-42
2021/08/21 08:04:39;;;;;;;15.65;7.47;;;;;;;25.81;52.15;100882.22;1724763;82;21037;-41
2021/08/21 08:07:05;;;;;;;14.03;7.35;;;;;;;25.82;52.26;100883.27;1730139;81;21113;-42
2021/08/21 08:09:31;;;;;;;12.90;6.58;;;;;;;25.83;52.38;100882.12;1725376;81;20932;-41
2021/08/21 08:11:57;;;;;;;12.35;7.55;;;;;;;25.85;52.48;100887.32;1727925;80;21272;-40
2021/08/21 08:14:23;;;;;;;11.18;7.70;;;;;;;25.84;52.60;100880.93;1730715;82;21164;-41
2021/08/21 08:16:49;;;;;;;13.78;7.58;;;;;;;25.85;52.71;100880.35;1727327;81;21667;-41
2021/08/21 08:19:16;;;;;;;10.72;7.30;;;;;;;25.85;52.79;100881.17;1740722;81;21066;-41
2021/08/21 08:21:42;;;;;;;9.90;7.00;;;;;;;25.83;52.68;100882.12;1741297;81;21072;-42
2021/08/21 08:24:08;;;;;;;9.68;6.28;;;;;;;25.80;52.48;100883.41;1750776;81;21001;-42
2021/08/21 08:26:34;;;;;;;11.85;6.92;;;;;;;25.74;52.28;100884.22;1740318;81;21086;-41
2021/08/21 08:29:00;;;;;;;43.38;15.05;;;;;;;25.68;52.06;100877.83;1739498;80;21140;-40
2021/08/21 08:31:26;;;;;;;21.77;9.90;;;;;;;25.63;51.88;100879.48;1736315;81;20982;-42
2021/08/21 08:33:52;;;;;;;34.85;15.48;;;;;;;25.58;51.69;100872.75;1743897;81;21055;-42
2021/08/21 08:36:18;;;;;;;27.77;11.88;;;;;;;25.53;51.47;100878.52;1742397;81;21730;-42
2021/08/21 08:38:45;;;;;;;9.28;5.65;;;;;;;25.46;51.24;100875.72;1738691;81;23132;-42
2021/08/21 08:41:11;;;;;;;6.60;4.97;;;;;;;25.43;51.00;100882.58;1744162;81;21055;-41
2021/08/21 08:43:39;;;;;;;35.17;13.80;;;;;;;25.37;50.73;100873.66;1744038;81;21072;-40
2021/08/21 08:46:05;;;;;;;10.45;5.12;;;;;;;25.33;50.50;100881.06;1728294;81;21045;-40
2021/08/21 08:48:33;;;;;;;6.55;4.67;;;;;;;25.28;50.27;100871.57;1739715;80;22693;-42
2021/08/21 08:50:59;;;;;;;48.68;19.00;;;;;;;25.25;50.01;100872.24;1746152;80;21113;-41
2021/08/21 08:53:25;;;;;;;9.70;5.92;;;;;;;25.20;49.76;100873.89;1707266;82;21443;-42
2021/08/21 08:55:51;;;;;;;9.15;4.80;;;;;;;25.16;49.52;100869.36;1683962;83;21119;-41
2021/08/21 08:58:17;;;;;;;9.33;5.60;;;;;;;25.11;49.25;100879.33;1708447;83;21734;-41
2021/08/21 09:00:44;;;;;;;32.78;11.20;;;;;;;25.08;48.99;100873.86;1707240;82;21047;-41
2021/08/21 09:03:23;;;;;;;21.07;7.67;;;;;;;25.04;48.77;100871.53;1707501;83;21120;-41
2021/08/21 09:05:49;;;;;;;61.80;19.02;;;;;;;25.01;48.55;100876.41;1701762;82;21104;-42
2021/08/21 09:08:28;;;;;;;9.68;5.05;;;;;;;24.98;48.32;100871.55;1680392;84;21560;-41
2021/08/21 09:11:03;;;;;;;7.83;4.15;;;;;;;24.94;48.08;100876.99;1704999;82;21034;-42
2021/08/21 09:13:31;;;;;;;15.72;6.92;;;;;;;24.91;47.86;100868.49;1702112;83;21120;-41
2021/08/21 09:16:00;;;;;;;16.15;6.83;;;;;;;24.86;47.60;100861.20;1706787;82;21170;-42
2021/08/21 09:18:28;;;;;;;5.95;4.00;;;;;;;24.84;47.41;100859.88;1680855;84;21082;-41
2021/08/21 09:21:02;;;;;;;7.40;4.00;;;;;;;24.80;47.18;100856.98;1701393;83;21042;-42
2021/08/21 09:23:44;;;;;;;6.03;3.80;;;;;;;24.78;46.98;100859.28;1728874;81;22291;-41
2021/08/21 09:26:35;;;;;;;7.25;4.00;;;;;;;24.75;46.76;100852.20;1723232;82;21063;-42
2021/08/21 09:29:01;;;;;;;6.78;3.30;;;;;;;24.71;46.56;100856.84;1694490;82;21516;-41
2021/08/21 09:31:33;;;;;;;4.33;3.33;;;;;;;24.68;46.38;100859.74;1729350;81;21077;-42
2021/08/21 09:34:08;;;;;;;5.37;3.20;;;;;;;24.65;46.22;100858.23;1730571;82;21016;-41
2021/08/21 09:36:40;;;;;;;4.95;3.08;;;;;;;24.63;46.02;100852.19;1691741;83;21350;-41
2021/08/21 09:39:12;;;;;;;3.92;2.83;;;;;;;24.61;45.84;100851.73;1730036;80;21104;-43
2021/08/21 09:42:01;;;;;;;4.78;2.95;;;;;;;24.57;45.66;100851.00;1699521;82;21122;-43
2021/08/21 09:44:39;;;;;;;4.40;2.90;;;;;;;24.56;45.49;100848.59;1728528;82;21080;-42
2021/08/21 09:47:30;;;;;;;46.18;17.37;;;;;;;24.52;45.32;100851.24;1724401;82;21046;-43
2021/08/21 09:50:14;;;;;;;11.73;5.12;;;;;;;24.50;45.16;100842.98;1720988;82;21036;-43
2021/08/21 09:52:43;;;;;;;188.55;53.08;;;;;;;24.49;44.98;100846.92;1690111;82;21108;-42
2021/08/21 09:55:14;;;;;;;161.00;38.90;;;;;;;24.47;44.83;100845.08;1731533;80;21132;-42
2021/08/21 09:57:39;;;;;;;22.57;7.33;;;;;;;24.44;44.64;100840.99;1727824;81;21101;-43
2021/08/21 10:00:06;;;;;;;14.85;5.42;;;;;;;24.42;44.52;100834.98;1696411;82;21106;-41
2021/08/21 10:02:33;;;;;;;7.22;3.55;;;;;;;24.42;44.42;100836.37;1723401;80;21074;-41
2021/08/21 10:05:00;;;;;;;10.95;3.65;;;;;;;24.41;44.26;100839.48;1727238;82;21452;-45
2021/08/21 10:07:36;;;;;;;27.75;9.88;;;;;;;24.40;44.13;100833.70;1730548;81;23140;-44
2021/08/21 10:10:04;;;;;;;11.20;4.42;;;;;;;24.39;43.98;100835.67;1699299;83;21028;-42
2021/08/21 10:12:31;;;;;;;36.03;10.58;;;;;;;24.40;43.84;100833.70;1735171;82;21069;-44
2021/08/21 10:14:58;;;;;;;31.82;9.18;;;;;;;24.38;43.71;100827.66;1737177;80;21825;-42
2021/08/21 10:17:24;;;;;;;57.60;15.68;;;;;;;24.39;43.55;100830.11;1729696;80;21039;-43
2021/08/21 10:19:50;;;;;;;133.50;32.65;;;;;;;24.40;43.40;100828.93;1739642;81;21516;-43
2021/08/21 10:22:16;;;;;;;44.45;10.23;;;;;;;24.42;43.26;100827.20;1746902;81;20899;-43
2021/08/21 10:24:47;;;;;;;12.53;4.25;;;;;;;24.43;43.12;100828.27;1749584;80;21012;-43
2021/08/21 10:27:34;;;;;;;5.47;2.50;;;;;;;24.45;42.96;100828.72;1744467;80;22002;-45
2021/08/21 10:30:15;;;;;;;12.28;3.35;;;;;;;24.47;42.81;100826.42;1743112;81;21080;-42
2021/08/21 10:32:45;;;;;;;5.00;2.80;;;;;;;24.47;42.65;100819.47;1736778;80;21122;-43
2021/08/21 10:35:13;;;;;;;4.57;2.20;;;;;;;24.47;42.50;100827.00;1740004;80;21101;-44
2021/08/21 10:37:44;;;;;;;3.08;2.35;;;;;;;24.46;42.38;100817.84;1740917;80;20995;-43
2021/08/21 10:40:32;;;;;;;3.42;2.27;;;;;;;24.47;42.25;100822.83;1709626;82;21118;-42
2021/08/21 10:43:03;;;;;;;3.08;2.22;;;;;;;24.48;42.14;100818.90;1743131;80;21490;-42
2021/08/21 10:45:47;;;;;;;3.65;2.20;;;;;;;24.49;42.00;100817.14;1744107;80;21520;-44
2021/08/21 10:48:29;;;;;;;2.87;2.02;;;;;;;24.51;41.88;100817.63;1739211;81;21507;-44
2021/08/21 10:50:55;;;;;;;3.95;2.47;;;;;;;24.52;41.73;100810.91;1684128;83;21353;-44
2021/08/21 10:53:28;;;;;;;30.02;12.23;;;;;;;24.54;41.62;100807.77;1703302;82;21068;-43
2021/08/21 10:55:55;;;;;;;41.77;14.55;;;;;;;24.56;41.50;100816.02;1683625;83;21105;-42
2021/08/21 10:58:31;;;;;;;34.03;11.33;;;;;;;24.57;41.40;100812.06;1738198;81;21123;-42
2021/08/21 11:01:06;;;;;;;23.02;9.40;;;;;;;24.60;41.31;100811.15;1744278;81;21026;-44
2021/08/21 11:03:38;;;;;;;21.97;7.30;;;;;;;24.62;41.23;100807.43;1738617;81;21037;-43
2021/08/21 11:06:13;;;;;;;4.83;2.58;;;;;;;24.63;41.16;100810.45;1744497;81;21068;-43
2021/08/21 11:08:44;;;;;;;14.20;4.37;;;;;;;24.65;41.09;100800.63;1682560;83;21117;-42
2021/08/21 11:11:30;;;;;;;9.25;3.58;;;;;;;24.68;41.16;100799.11;1737600;80;21124;-42
2021/08/21 11:14:25;;;;;;;6.12;2.50;;;;;;;24.73;41.26;100799.70;1694594;83;21129;-43
2021/08/21 11:16:58;;;;;;;4.28;1.87;;;;;;;24.79;41.36;100799.70;1747658;80;21063;-43
2021/08/21 11:19:33;;;;;;;4.25;2.00;;;;;;;24.85;41.44;100798.35;1706222;82;37981;-42
2021/08/21 11:22:25;;;;;;;2.67;1.70;;;;;;;24.91;41.53;100801.70;1704482;83;21118;-43
2021/08/21 11:24:58;;;;;;;4.40;2.25;;;;;;;24.96;41.58;100798.12;1733180;80;20983;-45